Terminal Aerodrome Forecast
Issued by NWS

Home | Current Version | Previous Version | Text Only | Print | Product List | Glossary On
Versions: 1 2 3 4 5 6 7 8 9 10 11 12 13 14 15 16 17 18 19 20 21 22
000
FTUS41 KCAR 202330
TAFFVE
TAF
KFVE 202330Z 2100/2124 22010G18KT 1/2SM SHSN VV005
     FM210100 25012KT P6SM VCSH BKN035
     FM211200 28010G20KT P6SM BKN035=

USA.gov is the U.S. government's official web portal to all federal, state and local government web resources and services.